BBG698 LGRP-LGIR
Flight info
| Callsign | BBG698 |
|---|---|
| Flight time | 0h 32m |
| Altitude | 24000 |
| Route | LOKNA N136 RUPUM UN136 LABUX |
| Aircraft | B738/M-SDE2E3FGHIRWXY/LB1 |
Departure
| Time | 2026-05-01 14:22 |
|---|---|
| Airport | Rhodes International Airport "Diagoras" (LGRP) |
Arrival
| Time | 2026-05-01 14:55 |
|---|---|
| Airport | Heraklion International Nikos Kazantzakis Airport (LGIR) |
| Time | Latitude | Longitude | Altitude | Speed | Heading |
|---|---|---|---|---|---|
| 2026-05-01 13:56 | 36.40409 | 28.09291 | 27 ft | 0 kts | 160° |
| 2026-05-01 14:12 | 36.40416 | 28.09288 | 27 ft | 4 kts | 160° |
| 2026-05-01 14:12 | 36.40438 | 28.09278 | 27 ft | 3 kts | 160° |
| 2026-05-01 14:12 | 36.40459 | 28.09263 | 27 ft | 4 kts | 124° |
| 2026-05-01 14:13 | 36.40466 | 28.09235 | 27 ft | 4 kts | 78° |
| 2026-05-01 14:13 | 36.40461 | 28.09215 | 27 ft | 4 kts | 70° |
| 2026-05-01 14:13 | 36.40455 | 28.09192 | 27 ft | 0 kts | 70° |
| 2026-05-01 14:16 | 36.40455 | 28.09194 | 27 ft | 1 kts | 70° |
| 2026-05-01 14:16 | 36.40464 | 28.09224 | 27 ft | 6 kts | 70° |
| 2026-05-01 14:17 | 36.40474 | 28.09259 | 27 ft | 0 kts | 70° |
| 2026-05-01 14:17 | 36.40479 | 28.09277 | 27 ft | 6 kts | 70° |
| 2026-05-01 14:17 | 36.40511 | 28.09344 | 27 ft | 11 kts | 50° |
| 2026-05-01 14:18 | 36.40569 | 28.09407 | 27 ft | 11 kts | 37° |
| 2026-05-01 14:18 | 36.40610 | 28.09491 | 27 ft | 12 kts | 70° |
| 2026-05-01 14:18 | 36.40640 | 28.09592 | 27 ft | 13 kts | 69° |
| 2026-05-01 14:18 | 36.40661 | 28.09664 | 27 ft | 13 kts | 71° |
| 2026-05-01 14:19 | 36.40702 | 28.09804 | 27 ft | 13 kts | 70° |
| 2026-05-01 14:19 | 36.40734 | 28.09916 | 27 ft | 14 kts | 70° |
| 2026-05-01 14:19 | 36.40769 | 28.10030 | 27 ft | 14 kts | 69° |
| 2026-05-01 14:19 | 36.40803 | 28.10140 | 27 ft | 14 kts | 69° |
| 2026-05-01 14:20 | 36.40833 | 28.10249 | 27 ft | 13 kts | 71° |
| 2026-05-01 14:20 | 36.40920 | 28.10425 | 27 ft | 13 kts | 359° |
| 2026-05-01 14:20 | 36.40993 | 28.10358 | 26 ft | 14 kts | 308° |
| 2026-05-01 14:21 | 36.41016 | 28.10248 | 26 ft | 14 kts | 256° |
| 2026-05-01 14:21 | 36.41012 | 28.10232 | 26 ft | 0 kts | 250° |
| 2026-05-01 14:22 | 36.40994 | 28.10170 | 26 ft | 35 kts | 251° |
| 2026-05-01 14:22 | 36.40808 | 28.09536 | 29 ft | 118 kts | 250° |
| 2026-05-01 14:22 | 36.40476 | 28.08358 | 281 ft | 160 kts | 252° |
| 2026-05-01 14:22 | 36.40135 | 28.07044 | 1210 ft | 156 kts | 253° |
| 2026-05-01 14:23 | 36.39943 | 28.05767 | 2271 ft | 150 kts | 264° |
| 2026-05-01 14:23 | 36.39823 | 28.04382 | 2877 ft | 179 kts | 265° |
| 2026-05-01 14:23 | 36.39687 | 28.02684 | 3201 ft | 214 kts | 265° |
| 2026-05-01 14:23 | 36.39533 | 28.00736 | 3520 ft | 236 kts | 265° |
| 2026-05-01 14:24 | 36.39368 | 27.98680 | 4153 ft | 244 kts | 265° |
| 2026-05-01 14:24 | 36.39196 | 27.96502 | 4601 ft | 261 kts | 265° |
| 2026-05-01 14:24 | 36.39016 | 27.94218 | 5465 ft | 268 kts | 264° |
| 2026-05-01 14:24 | 36.38558 | 27.91979 | 6545 ft | 270 kts | 247° |
| 2026-05-01 14:25 | 36.37755 | 27.89859 | 7605 ft | 274 kts | 245° |
| 2026-05-01 14:25 | 36.36933 | 27.87706 | 8655 ft | 278 kts | 245° |
| 2026-05-01 14:25 | 36.36106 | 27.85520 | 9747 ft | 282 kts | 245° |
| 2026-05-01 14:25 | 36.35263 | 27.83287 | 10639 ft | 294 kts | 246° |
| 2026-05-01 14:26 | 36.34350 | 27.80866 | 10937 ft | 326 kts | 246° |
| 2026-05-01 14:26 | 36.32283 | 27.75403 | 11949 ft | 362 kts | 246° |
| 2026-05-01 14:26 | 36.31207 | 27.72568 | 12896 ft | 365 kts | 246° |
| 2026-05-01 14:27 | 36.30120 | 27.69709 | 13876 ft | 368 kts | 246° |
| 2026-05-01 14:27 | 36.29022 | 27.66823 | 14814 ft | 373 kts | 245° |
| 2026-05-01 14:27 | 36.27924 | 27.63939 | 15758 ft | 377 kts | 246° |
| 2026-05-01 14:28 | 36.25666 | 27.58011 | 17514 ft | 385 kts | 245° |
| 2026-05-01 14:28 | 36.24516 | 27.54996 | 18349 ft | 389 kts | 245° |
| 2026-05-01 14:28 | 36.23350 | 27.51949 | 19170 ft | 393 kts | 245° |
| 2026-05-01 14:28 | 36.22172 | 27.48872 | 19960 ft | 397 kts | 245° |
| 2026-05-01 14:29 | 36.20986 | 27.45773 | 20724 ft | 401 kts | 245° |
| 2026-05-01 14:29 | 36.19783 | 27.42636 | 21426 ft | 405 kts | 246° |
| 2026-05-01 14:30 | 36.16111 | 27.33074 | 23461 ft | 413 kts | 246° |
| 2026-05-01 14:30 | 36.14878 | 27.29869 | 23878 ft | 412 kts | 246° |
| 2026-05-01 14:30 | 36.13635 | 27.26643 | 23976 ft | 421 kts | 246° |
| 2026-05-01 14:31 | 36.11056 | 27.19951 | 23990 ft | 437 kts | 245° |
| 2026-05-01 14:31 | 36.09745 | 27.16558 | 23982 ft | 435 kts | 246° |
| 2026-05-01 14:31 | 36.08443 | 27.13193 | 23977 ft | 433 kts | 245° |
| 2026-05-01 14:31 | 36.07146 | 27.09845 | 23979 ft | 432 kts | 245° |
| 2026-05-01 14:32 | 36.05850 | 27.06503 | 23982 ft | 431 kts | 245° |
| 2026-05-01 14:32 | 36.04993 | 27.04295 | 23987 ft | 430 kts | 245° |
| 2026-05-01 14:32 | 36.03261 | 26.99837 | 24003 ft | 431 kts | 245° |
| 2026-05-01 14:32 | 36.01962 | 26.96496 | 24008 ft | 431 kts | 245° |
| 2026-05-01 14:33 | 36.00662 | 26.93155 | 23997 ft | 432 kts | 245° |
| 2026-05-01 14:33 | 35.99799 | 26.90940 | 23994 ft | 432 kts | 245° |
| 2026-05-01 14:33 | 35.98050 | 26.86456 | 23989 ft | 433 kts | 246° |
| 2026-05-01 14:33 | 35.97184 | 26.84237 | 23991 ft | 434 kts | 246° |
| 2026-05-01 14:34 | 35.95875 | 26.80886 | 23993 ft | 434 kts | 246° |
| 2026-05-01 14:34 | 35.94563 | 26.77532 | 23990 ft | 434 kts | 246° |
| 2026-05-01 14:34 | 35.93250 | 26.74179 | 23994 ft | 433 kts | 246° |
| 2026-05-01 14:34 | 35.91939 | 26.70831 | 23999 ft | 433 kts | 246° |
| 2026-05-01 14:35 | 35.90626 | 26.67484 | 24001 ft | 433 kts | 246° |
| 2026-05-01 14:35 | 35.89315 | 26.64145 | 24000 ft | 433 kts | 246° |
| 2026-05-01 14:35 | 35.88001 | 26.60803 | 24000 ft | 433 kts | 246° |
| 2026-05-01 14:35 | 35.86687 | 26.57465 | 24001 ft | 433 kts | 246° |
| 2026-05-01 14:36 | 35.85370 | 26.54123 | 24000 ft | 433 kts | 246° |
| 2026-05-01 14:36 | 35.84057 | 26.50793 | 23999 ft | 432 kts | 245° |
| 2026-05-01 14:36 | 35.82740 | 26.47457 | 24001 ft | 432 kts | 245° |
| 2026-05-01 14:36 | 35.81424 | 26.44126 | 24006 ft | 432 kts | 245° |
| 2026-05-01 14:37 | 35.80108 | 26.40800 | 24009 ft | 432 kts | 245° |
| 2026-05-01 14:37 | 35.78792 | 26.37476 | 24010 ft | 432 kts | 245° |
| 2026-05-01 14:37 | 35.77493 | 26.34203 | 23994 ft | 415 kts | 245° |
| 2026-05-01 14:37 | 35.76258 | 26.31098 | 23991 ft | 393 kts | 245° |
| 2026-05-01 14:38 | 35.75088 | 26.28157 | 24002 ft | 373 kts | 246° |
| 2026-05-01 14:38 | 35.73972 | 26.25353 | 23761 ft | 360 kts | 246° |
| 2026-05-01 14:38 | 35.72882 | 26.22610 | 23318 ft | 354 kts | 246° |
| 2026-05-01 14:38 | 35.71803 | 26.19895 | 22697 ft | 353 kts | 246° |
| 2026-05-01 14:39 | 35.70726 | 26.17186 | 21988 ft | 352 kts | 245° |
| 2026-05-01 14:39 | 35.69651 | 26.14486 | 20957 ft | 353 kts | 245° |
| 2026-05-01 14:39 | 35.68567 | 26.11769 | 19863 ft | 355 kts | 245° |
| 2026-05-01 14:39 | 35.67475 | 26.09036 | 18778 ft | 356 kts | 245° |
| 2026-05-01 14:40 | 35.66385 | 26.06308 | 17713 ft | 355 kts | 245° |
| 2026-05-01 14:40 | 35.65297 | 26.03589 | 16655 ft | 354 kts | 245° |
| 2026-05-01 14:40 | 35.64226 | 26.00916 | 15631 ft | 352 kts | 245° |
| 2026-05-01 14:40 | 35.63150 | 25.98231 | 14598 ft | 349 kts | 245° |
| 2026-05-01 14:41 | 35.62083 | 25.95569 | 13591 ft | 345 kts | 245° |
| 2026-05-01 14:41 | 35.61026 | 25.92935 | 12590 ft | 342 kts | 245° |
| 2026-05-01 14:41 | 35.59982 | 25.90335 | 11611 ft | 338 kts | 245° |
| 2026-05-01 14:41 | 35.58954 | 25.87778 | 10971 ft | 326 kts | 245° |
| 2026-05-01 14:42 | 35.57993 | 25.85349 | 10676 ft | 306 kts | 249° |
| 2026-05-01 14:42 | 35.57622 | 25.82895 | 10502 ft | 284 kts | 273° |
| 2026-05-01 14:42 | 35.57964 | 25.80572 | 10201 ft | 272 kts | 283° |
| 2026-05-01 14:42 | 35.58443 | 25.78352 | 9768 ft | 267 kts | 284° |
| 2026-05-01 14:43 | 35.58929 | 25.76183 | 9416 ft | 258 kts | 284° |
| 2026-05-01 14:43 | 35.59403 | 25.74102 | 9165 ft | 248 kts | 285° |
| 2026-05-01 14:43 | 35.59861 | 25.72083 | 8969 ft | 244 kts | 284° |
| 2026-05-01 14:43 | 35.60329 | 25.70057 | 8771 ft | 250 kts | 285° |
| 2026-05-01 14:44 | 35.60810 | 25.67952 | 8587 ft | 263 kts | 285° |
| 2026-05-01 14:44 | 35.61789 | 25.63590 | 8204 ft | 260 kts | 285° |
| 2026-05-01 14:44 | 35.62257 | 25.61484 | 8069 ft | 251 kts | 285° |
| 2026-05-01 14:45 | 35.62712 | 25.59437 | 7873 ft | 250 kts | 285° |
| 2026-05-01 14:45 | 35.62775 | 25.55131 | 7286 ft | 263 kts | 240° |
| 2026-05-01 14:45 | 35.61463 | 25.53640 | 7055 ft | 260 kts | 205° |
| 2026-05-01 14:46 | 35.59719 | 25.53181 | 6841 ft | 256 kts | 191° |
| 2026-05-01 14:46 | 35.56311 | 25.52009 | 6233 ft | 254 kts | 199° |
| 2026-05-01 14:46 | 35.54626 | 25.51376 | 5908 ft | 253 kts | 198° |
| 2026-05-01 14:47 | 35.52935 | 25.50759 | 5560 ft | 254 kts | 197° |
| 2026-05-01 14:47 | 35.51237 | 25.50152 | 5222 ft | 254 kts | 197° |
| 2026-05-01 14:47 | 35.49535 | 25.49560 | 4892 ft | 254 kts | 197° |
| 2026-05-01 14:48 | 35.46226 | 25.48420 | 4606 ft | 240 kts | 197° |
| 2026-05-01 14:48 | 35.44642 | 25.47879 | 4497 ft | 232 kts | 197° |
| 2026-05-01 14:48 | 35.41633 | 25.46858 | 4292 ft | 217 kts | 197° |
| 2026-05-01 14:49 | 35.38832 | 25.45909 | 4122 ft | 204 kts | 197° |
| 2026-05-01 14:49 | 35.36291 | 25.44584 | 3805 ft | 200 kts | 236° |
| 2026-05-01 14:50 | 35.35534 | 25.41993 | 3569 ft | 190 kts | 255° |
| 2026-05-01 14:50 | 35.34675 | 25.38533 | 3161 ft | 176 kts | 255° |
| 2026-05-01 14:51 | 35.34326 | 25.37129 | 3035 ft | 168 kts | 255° |
| 2026-05-01 14:51 | 35.33672 | 25.34485 | 2764 ft | 167 kts | 256° |
| 2026-05-01 14:52 | 35.33237 | 25.31824 | 2369 ft | 156 kts | 278° |
| 2026-05-01 14:52 | 35.33296 | 25.30441 | 2224 ft | 164 kts | 272° |
| 2026-05-01 14:52 | 35.33328 | 25.27800 | 1817 ft | 149 kts | 274° |
| 2026-05-01 14:53 | 35.33373 | 25.26570 | 1532 ft | 140 kts | 276° |
| 2026-05-01 14:53 | 35.33464 | 25.25418 | 1252 ft | 135 kts | 277° |
| 2026-05-01 14:53 | 35.33545 | 25.24270 | 1004 ft | 133 kts | 276° |
| 2026-05-01 14:53 | 35.33638 | 25.23164 | 767 ft | 131 kts | 278° |
| 2026-05-01 14:54 | 35.33706 | 25.22049 | 617 ft | 130 kts | 276° |
| 2026-05-01 14:54 | 35.33772 | 25.20956 | 467 ft | 126 kts | 277° |
| 2026-05-01 14:54 | 35.33839 | 25.19894 | 298 ft | 126 kts | 275° |
| 2026-05-01 14:54 | 35.33917 | 25.18829 | 121 ft | 123 kts | 276° |
| 2026-05-01 14:55 | 35.33990 | 25.17812 | 93 ft | 113 kts | 276° |
| 2026-05-01 14:55 | 35.34030 | 25.17230 | 89 ft | 34 kts | 267° |
| 2026-05-01 14:55 | 35.33974 | 25.17066 | 90 ft | 16 kts | 224° |
| 2026-05-01 14:55 | 35.33942 | 25.17074 | 91 ft | 5 kts | 102° |
| 2026-05-01 14:56 | 35.33938 | 25.17126 | 89 ft | 8 kts | 96° |
| 2026-05-01 14:56 | 35.33932 | 25.17207 | 90 ft | 10 kts | 95° |
| 2026-05-01 14:56 | 35.33926 | 25.17301 | 91 ft | 12 kts | 95° |
| 2026-05-01 14:56 | 35.33918 | 25.17402 | 90 ft | 13 kts | 95° |
| 2026-05-01 14:57 | 35.33910 | 25.17514 | 92 ft | 14 kts | 95° |
| 2026-05-01 14:57 | 35.33894 | 25.17760 | 91 ft | 15 kts | 94° |
| 2026-05-01 14:57 | 35.33885 | 25.17893 | 93 ft | 16 kts | 95° |
| 2026-05-01 14:58 | 35.33830 | 25.18012 | 91 ft | 17 kts | 126° |
| 2026-05-01 14:58 | 35.33790 | 25.18053 | 92 ft | 1 kts | 198° |
| 2026-05-01 14:58 | 35.33768 | 25.18037 | 90 ft | 3 kts | 212° |
| 2026-05-01 14:58 | 35.33763 | 25.18033 | 93 ft | 0 kts | 213° |